createdAt,value
2018-08-09T00:01:29.524Z,5.12
2018-08-09T00:03:59.103Z,4.85
2018-08-09T00:06:28.362Z,3.85
2018-08-09T00:08:57.760Z,5.35
2018-08-09T00:11:27.323Z,4.65
2018-08-09T00:13:57.197Z,4.53
2018-08-09T00:16:26.797Z,3.02
2018-08-09T00:18:55.999Z,5.17
2018-08-09T00:21:25.270Z,5.12
2018-08-09T00:23:54.712Z,3.83
2018-08-09T00:26:24.002Z,2.62
2018-08-09T00:28:53.305Z,4.92
2018-08-09T00:31:22.547Z,2.47
2018-08-09T00:33:51.850Z,3.02
2018-08-09T00:36:21.149Z,2.87
2018-08-09T00:38:50.271Z,5.37
2018-08-09T00:41:19.720Z,5.53
2018-08-09T00:43:48.999Z,4.85
2018-08-09T00:46:18.389Z,3.42
2018-08-09T00:48:47.816Z,2.75
2018-08-09T00:51:17.087Z,4.05
2018-08-09T00:53:46.210Z,3.25
2018-08-09T00:56:15.540Z,3.58
2018-08-09T00:58:45.044Z,4.58
2018-08-09T01:01:14.344Z,4.05
2018-08-09T01:03:43.792Z,4.55
2018-08-09T01:06:13.035Z,4.12
2018-08-09T01:08:46.239Z,3.62
2018-08-09T01:11:15.432Z,5.50
2018-08-09T01:13:44.824Z,5.92
2018-08-09T01:16:14.026Z,5.03
2018-08-09T01:18:43.284Z,7.78
2018-08-09T01:21:12.750Z,4.00
2018-08-09T01:23:42.010Z,4.62
2018-08-09T01:26:11.338Z,4.47
2018-08-09T01:28:40.408Z,4.03
2018-08-09T01:31:09.671Z,6.70
2018-08-09T01:33:39.728Z,7.92
2018-08-09T01:36:08.916Z,6.10
2018-08-09T01:38:38.194Z,6.97
2018-08-09T01:41:07.408Z,7.28
2018-08-09T01:43:47.113Z,6.78
2018-08-09T01:46:17.208Z,6.85
2018-08-09T01:48:46.709Z,7.95
2018-08-09T01:51:16.149Z,7.17
2018-08-09T01:53:45.415Z,8.80
2018-08-09T01:56:15.314Z,7.75
2018-08-09T01:58:44.723Z,8.85
2018-08-09T02:01:14.104Z,8.98
2018-08-09T02:03:44.421Z,10.05
2018-08-09T02:06:14.267Z,9.68
2018-08-09T02:08:43.434Z,10.20
2018-08-09T02:11:13.119Z,9.53
2018-08-09T02:13:42.968Z,9.95
2018-08-09T02:16:12.296Z,9.80
2018-08-09T02:18:41.537Z,10.93
2018-08-09T02:21:11.338Z,10.78
2018-08-09T02:23:41.182Z,12.07
2018-08-09T02:26:10.316Z,9.60
2018-08-09T02:28:39.401Z,11.08
2018-08-09T02:31:08.897Z,8.28
2018-08-09T02:33:38.428Z,7.67
2018-08-09T02:36:07.327Z,7.83
2018-08-09T02:38:36.782Z,7.78
2018-08-09T02:41:06.193Z,7.42
2018-08-09T02:43:35.470Z,7.37
2018-08-09T02:46:04.738Z,9.28
2018-08-09T02:48:34.149Z,8.65
2018-08-09T02:51:03.292Z,8.30
2018-08-09T02:53:33.121Z,8.65
2018-08-09T02:56:02.601Z,7.92
2018-08-09T02:58:31.720Z,8.25
2018-08-09T03:01:01.091Z,7.85
2018-08-09T03:03:30.340Z,5.20
2018-08-09T03:05:59.610Z,4.45
2018-08-09T03:08:29.474Z,5.67
2018-08-09T03:10:58.860Z,8.25
2018-08-09T03:13:28.340Z,5.42
2018-08-09T03:15:57.695Z,6.75
2018-08-09T03:18:26.798Z,6.33
2018-08-09T03:20:56.057Z,5.55
2018-08-09T03:23:25.334Z,8.53
2018-08-09T03:25:54.489Z,9.10
2018-08-09T03:28:23.769Z,6.75
2018-08-09T03:30:53.050Z,5.58
2018-08-09T03:33:22.301Z,6.80
2018-08-09T03:35:51.488Z,7.72
2018-08-09T03:38:20.801Z,7.92
2018-08-09T03:40:50.013Z,6.55
2018-08-09T03:43:19.156Z,6.62
2018-08-09T03:45:48.349Z,8.33
2018-08-09T03:48:18.239Z,7.35
2018-08-09T03:50:47.537Z,8.53
2018-08-09T03:53:16.802Z,6.17
2018-08-09T03:55:46.618Z,6.92
2018-08-09T03:58:16.123Z,5.15
2018-08-09T04:00:45.902Z,8.78
2018-08-09T04:03:15.489Z,6.92
2018-08-09T04:05:45.112Z,8.20
2018-08-09T04:08:14.270Z,5.87
2018-08-09T04:10:43.952Z,6.58
2018-08-09T04:13:18.421Z,6.15
2018-08-09T04:15:48.575Z,7.72
2018-08-09T04:18:17.719Z,5.70
2018-08-09T04:20:47.257Z,6.85
2018-08-09T04:23:16.887Z,6.67
2018-08-09T04:25:46.406Z,6.90
2018-08-09T04:28:15.934Z,4.90
2018-08-09T04:30:45.406Z,6.67
2018-08-09T04:33:15.065Z,6.12
2018-08-09T04:35:44.546Z,4.45
2018-08-09T04:38:14.269Z,5.17
2018-08-09T04:40:43.526Z,7.47
2018-08-09T04:43:13.323Z,5.15
2018-08-09T04:45:42.632Z,4.75
2018-08-09T04:48:12.190Z,4.40
2018-08-09T04:50:41.544Z,4.80
2018-08-09T04:53:11.292Z,9.80
2018-08-09T04:55:40.666Z,6.58
2018-08-09T04:58:11.728Z,7.95
2018-08-09T05:00:41.035Z,8.03
2018-08-09T05:03:10.229Z,8.95
2018-08-09T05:05:39.723Z,9.58
2018-08-09T05:08:09.150Z,8.73
2018-08-09T05:10:38.581Z,9.30
2018-08-09T05:13:08.136Z,12.40
2018-08-09T05:15:37.377Z,13.08
2018-08-09T05:18:06.941Z,12.75
2018-08-09T05:20:37.826Z,10.68
2018-08-09T05:23:07.480Z,8.18
2018-08-09T05:25:36.825Z,9.23
2018-08-09T05:28:06.384Z,11.00
2018-08-09T05:30:35.895Z,9.20
2018-08-09T05:33:05.451Z,8.88
2018-08-09T05:35:34.714Z,9.25
2018-08-09T05:38:04.305Z,11.00
2018-08-09T05:40:33.729Z,10.05
2018-08-09T05:43:07.461Z,12.85
2018-08-09T05:45:40.610Z,13.72
2018-08-09T05:48:09.925Z,10.35
2018-08-09T05:50:39.435Z,9.10
2018-08-09T05:53:08.965Z,8.38
2018-08-09T05:55:38.616Z,10.13
2018-08-09T05:58:09.077Z,11.35
2018-08-09T06:00:38.734Z,13.20
2018-08-09T06:03:08.619Z,14.13
2018-08-09T06:05:38.192Z,12.53
2018-08-09T06:08:07.973Z,11.10
2018-08-09T06:30:47.327Z,7.03
2018-08-09T06:33:16.776Z,6.05
2018-08-09T06:35:46.782Z,7.60
2018-08-09T06:38:16.628Z,7.22
2018-08-09T06:40:46.191Z,10.00
2018-08-09T06:43:16.259Z,6.35
2018-08-09T06:45:45.501Z,10.70
2018-08-09T06:48:15.860Z,8.10
2018-08-09T06:50:45.319Z,8.28
2018-08-09T06:53:14.740Z,8.35
2018-08-09T06:55:44.041Z,8.50
2018-08-09T06:58:13.598Z,10.20
2018-08-09T07:00:43.128Z,8.65
2018-08-09T07:03:12.613Z,9.43
2018-08-09T07:05:42.033Z,8.00
2018-08-09T07:08:11.839Z,8.90
2018-08-09T07:10:41.468Z,11.50
2018-08-09T07:13:10.906Z,8.48
2018-08-09T07:15:40.677Z,8.88
2018-08-09T07:18:10.032Z,7.33
2018-08-09T07:20:39.665Z,9.50
2018-08-09T07:23:08.993Z,9.65
2018-08-09T07:25:38.649Z,7.40
2018-08-09T07:28:08.781Z,8.40
2018-08-09T07:30:38.020Z,8.40
2018-08-09T07:33:07.384Z,9.58
2018-08-09T07:35:37.894Z,7.65
2018-08-09T07:38:07.610Z,6.45
2018-08-09T07:40:37.169Z,8.60
2018-08-09T08:00:23.164Z,8.50
2018-08-09T08:02:52.579Z,8.68
2018-08-09T08:05:22.070Z,9.43
2018-08-09T08:07:51.693Z,9.93
2018-08-09T08:10:21.433Z,7.10
2018-08-09T08:12:51.002Z,8.50
2018-08-09T08:15:21.032Z,5.07
2018-08-09T08:17:50.417Z,8.83
2018-08-09T08:20:20.049Z,7.97
2018-08-09T08:22:50.166Z,6.55
2018-08-09T08:25:20.243Z,6.87
2018-08-09T08:27:49.836Z,7.37
2018-08-09T08:30:20.068Z,10.20
2018-08-09T08:32:49.797Z,6.72
2018-08-09T08:35:19.581Z,6.70
2018-08-09T08:37:48.984Z,9.83
2018-08-09T08:40:18.495Z,8.07
2018-08-09T08:42:47.840Z,6.65
2018-08-09T08:45:17.787Z,10.37
2018-08-09T08:47:47.121Z,10.93
2018-08-09T08:50:16.887Z,7.77
2018-08-09T08:52:46.281Z,6.95
2018-08-09T08:55:15.674Z,8.13
2018-08-09T08:57:45.214Z,7.83
2018-08-09T09:00:14.831Z,8.13
2018-08-09T09:02:44.503Z,10.48
2018-08-09T09:05:14.300Z,9.97
2018-08-09T09:07:43.704Z,9.13
2018-08-09T09:10:14.502Z,6.53
2018-08-09T09:12:44.017Z,6.58
2018-08-09T09:15:14.799Z,7.62
2018-08-09T17:22:51.489Z,8.30
2018-08-09T17:25:21.003Z,3.33
2018-08-09T17:27:50.868Z,3.55
2018-08-09T17:30:21.552Z,4.97
2018-08-09T17:35:21.691Z,5.25
2018-08-09T17:37:51.274Z,3.25
2018-08-09T17:40:24.747Z,3.17
2018-08-09T17:42:55.096Z,3.20
2018-08-09T17:45:27.824Z,4.33
2018-08-09T17:47:57.293Z,3.80
2018-08-09T17:50:26.990Z,2.98
2018-08-09T17:52:57.757Z,5.83
2018-08-09T17:55:27.238Z,4.35
2018-08-09T17:57:56.764Z,4.22
2018-08-09T18:00:29.658Z,3.83
2018-08-09T18:02:59.206Z,6.47
2018-08-09T18:05:28.626Z,4.10
2018-08-09T18:07:58.503Z,4.83
2018-08-09T18:10:30.611Z,4.87
2018-08-09T18:13:00.297Z,4.35
2018-08-09T18:15:30.351Z,5.62
2018-08-09T18:18:00.359Z,6.15
2018-08-09T18:20:31.483Z,6.22
2018-08-09T18:23:01.224Z,5.33
2018-08-09T18:25:30.736Z,5.83
2018-08-09T18:28:00.266Z,6.25
2018-08-09T18:30:29.822Z,5.85
2018-08-09T18:32:59.293Z,5.22
2018-08-09T18:35:28.648Z,5.17
2018-08-09T18:37:58.152Z,6.78
2018-08-09T18:40:28.307Z,5.37
2018-08-09T18:42:57.831Z,3.95
2018-08-09T18:45:27.386Z,3.55
2018-08-09T18:47:57.067Z,25.95
2018-08-09T18:50:27.805Z,33.33
2018-08-09T18:52:57.312Z,4.58
2018-08-09T18:55:26.878Z,5.22
2018-08-09T18:57:56.393Z,3.42
2018-08-09T19:00:28.294Z,2.90
2018-08-09T19:02:57.755Z,2.22
2018-08-09T19:05:27.565Z,4.80
2018-08-09T19:07:57.235Z,4.75
2018-08-09T19:10:28.366Z,1.90
2018-08-09T19:12:57.880Z,3.10
2018-08-09T19:15:27.560Z,2.77
2018-08-09T19:17:57.098Z,5.95
2018-08-09T19:20:28.799Z,5.13
2018-08-09T19:22:58.573Z,5.22
2018-08-09T19:25:28.176Z,5.87
2018-08-09T19:27:57.728Z,3.08
2018-08-09T19:30:28.532Z,4.47
2018-08-09T19:32:57.837Z,2.60
2018-08-09T19:35:27.646Z,2.67
2018-08-09T19:37:57.695Z,2.52
2018-08-09T19:40:29.987Z,2.50
2018-08-09T19:42:59.855Z,2.62
2018-08-09T19:45:29.133Z,4.40
2018-08-09T19:47:58.471Z,2.72
2018-08-09T19:50:27.707Z,3.15
2018-08-09T19:52:57.415Z,3.83
2018-08-09T19:55:27.748Z,37.60
2018-08-09T19:57:57.368Z,51.02
2018-08-09T20:00:30.034Z,3.23
2018-08-09T20:02:59.208Z,4.58
2018-08-09T20:05:28.645Z,3.58
2018-08-09T20:07:58.368Z,2.42
2018-08-09T20:10:27.813Z,3.85
2018-08-09T20:12:57.799Z,3.33
2018-08-09T20:15:27.516Z,3.10
2018-08-09T20:17:57.734Z,5.28
2018-08-09T20:20:28.068Z,2.10
2018-08-09T20:22:58.315Z,3.20
2018-08-09T20:25:27.904Z,2.17
2018-08-09T20:27:57.451Z,2.30
2018-08-09T20:30:27.507Z,2.10
2018-08-09T20:32:59.060Z,1.98
2018-08-09T20:35:28.596Z,2.10
2018-08-09T20:37:58.035Z,3.08
2018-08-09T20:40:27.296Z,2.00
2018-08-09T20:42:56.667Z,1.77
2018-08-09T20:45:26.906Z,2.23
2018-08-09T20:47:56.124Z,3.40
2018-08-09T20:50:27.485Z,2.22
2018-08-09T20:52:57.208Z,2.70
2018-08-09T20:55:26.493Z,2.67
2018-08-09T20:57:56.658Z,1.82
2018-08-09T21:00:27.549Z,2.97
2018-08-09T21:02:58.348Z,3.17
2018-08-09T21:05:29.008Z,1.30
2018-08-09T21:07:58.733Z,1.07
2018-08-09T21:10:28.326Z,1.02
2018-08-09T21:12:58.092Z,1.90
2018-08-09T21:15:27.424Z,1.15
2018-08-09T21:17:56.546Z,1.75
2018-08-09T21:20:25.807Z,1.20
2018-08-09T21:22:55.190Z,2.72
2018-08-09T21:25:24.569Z,2.00
2018-08-09T21:27:53.815Z,1.50
2018-08-09T21:30:23.860Z,1.27
2018-08-09T21:32:53.515Z,1.47
2018-08-09T21:35:22.873Z,1.00
2018-08-09T21:37:52.137Z,1.62
2018-08-09T21:40:21.645Z,1.30
2018-08-09T21:42:50.891Z,1.35
2018-08-09T21:45:20.921Z,0.90
2018-08-09T21:47:50.143Z,1.45
2018-08-09T21:50:20.726Z,1.93
2018-08-09T21:52:50.189Z,1.60
2018-08-09T21:55:19.370Z,1.60
2018-08-09T21:57:48.958Z,1.30
2018-08-09T22:00:31.252Z,1.50
2018-08-09T22:03:00.998Z,1.40
2018-08-09T22:05:35.250Z,2.62
2018-08-09T22:08:09.586Z,1.98
2018-08-09T22:11:52.513Z,1.70
2018-08-09T22:14:27.842Z,2.42
2018-08-09T22:17:02.093Z,1.98
2018-08-09T22:19:36.547Z,3.20
2018-08-09T22:22:10.701Z,3.22
2018-08-09T22:24:40.533Z,2.55
2018-08-09T22:27:10.561Z,4.00
2018-08-09T22:29:40.075Z,2.87
2018-08-09T22:32:09.796Z,3.62
2018-08-09T22:34:38.919Z,3.83
2018-08-09T22:37:07.982Z,2.30
2018-08-09T22:39:43.898Z,2.50
2018-08-09T22:42:13.524Z,1.62
2018-08-09T22:44:42.823Z,2.20
2018-08-09T22:47:12.117Z,1.90
2018-08-09T22:49:41.378Z,2.47
2018-08-09T22:52:10.524Z,3.02
2018-08-09T22:54:39.631Z,2.92
2018-08-09T22:57:09.004Z,1.95
2018-08-09T22:59:38.325Z,1.80
2018-08-09T23:02:07.511Z,2.05
2018-08-09T23:04:36.782Z,2.90
2018-08-09T23:07:06.359Z,3.98
2018-08-09T23:09:35.591Z,3.02
2018-08-09T23:12:05.504Z,2.98
2018-08-09T23:14:34.801Z,2.85
2018-08-09T23:17:04.511Z,4.60
2018-08-09T23:19:33.830Z,2.87
2018-08-09T23:22:03.424Z,3.77
2018-08-09T23:24:32.813Z,2.77
2018-08-09T23:27:02.587Z,4.20
2018-08-09T23:29:31.972Z,3.33
2018-08-09T23:32:01.414Z,3.72
2018-08-09T23:34:30.845Z,2.75
2018-08-09T23:37:00.946Z,2.80
2018-08-09T23:39:30.188Z,4.50
2018-08-09T23:41:59.365Z,4.03
2018-08-09T23:44:28.672Z,1.10
2018-08-09T23:46:57.943Z,2.58
2018-08-09T23:49:27.210Z,4.85
2018-08-09T23:51:56.388Z,4.05
2018-08-09T23:54:25.739Z,4.62
2018-08-09T23:56:55.112Z,5.17
2018-08-09T23:59:24.365Z,2.33
